createdAt,value
2019-06-26T00:00:48.418Z,0.00
2019-06-26T00:01:48.446Z,0.00
2019-06-26T00:02:48.404Z,0.00
2019-06-26T00:03:48.400Z,0.00
2019-06-26T00:04:48.380Z,0.00
2019-06-26T00:05:48.394Z,0.00
2019-06-26T00:06:48.365Z,0.00
2019-06-26T00:07:48.368Z,0.00
2019-06-26T00:08:48.379Z,0.00
2019-06-26T00:09:48.329Z,0.00
2019-06-26T00:10:48.314Z,0.00
2019-06-26T00:11:48.313Z,0.00
2019-06-26T00:12:48.334Z,0.00
2019-06-26T00:13:48.306Z,0.00
2019-06-26T00:14:48.288Z,0.00
2019-06-26T00:15:48.300Z,0.00
2019-06-26T00:16:48.301Z,0.00
2019-06-26T00:17:48.300Z,0.00
2019-06-26T00:18:48.260Z,0.00
2019-06-26T00:19:48.284Z,0.00
2019-06-26T00:20:48.214Z,0.00
2019-06-26T00:21:48.198Z,0.00
2019-06-26T00:22:48.190Z,0.00
2019-06-26T00:23:48.239Z,0.00
2019-06-26T00:24:48.198Z,0.00
2019-06-26T00:25:48.166Z,0.00
2019-06-26T00:26:48.153Z,0.00
2019-06-26T00:27:48.123Z,0.00
2019-06-26T00:28:48.148Z,0.00
2019-06-26T00:29:48.151Z,0.00
2019-06-26T00:30:48.101Z,0.00
2019-06-26T00:31:48.106Z,0.00
2019-06-26T00:32:48.071Z,0.00
2019-06-26T00:33:48.084Z,0.00
2019-06-26T00:34:48.082Z,0.00
2019-06-26T00:35:48.064Z,0.00
2019-06-26T00:36:48.055Z,0.00
2019-06-26T00:37:48.032Z,0.00
2019-06-26T00:38:48.036Z,0.00
2019-06-26T00:39:48.066Z,0.00
2019-06-26T00:40:47.992Z,0.00
2019-06-26T00:41:47.989Z,0.00
2019-06-26T00:42:47.987Z,0.00
2019-06-26T00:43:47.952Z,0.00
2019-06-26T00:44:48.000Z,0.00
2019-06-26T00:45:47.941Z,0.00
2019-06-26T00:46:47.946Z,0.00
2019-06-26T00:47:47.935Z,0.00
2019-06-26T00:48:47.898Z,0.00
2019-06-26T00:49:47.910Z,0.00
2019-06-26T00:50:47.927Z,0.00
2019-06-26T00:51:47.879Z,0.00
2019-06-26T00:52:47.881Z,0.00
2019-06-26T00:53:47.890Z,0.00
2019-06-26T00:54:47.874Z,0.00
2019-06-26T00:55:47.877Z,0.00
2019-06-26T00:56:47.834Z,0.00
2019-06-26T00:57:47.803Z,0.00
2019-06-26T00:58:47.858Z,0.00
2019-06-26T00:59:48.692Z,0.00
2019-06-26T01:00:47.775Z,0.00
2019-06-26T01:01:47.844Z,0.00
2019-06-26T01:02:47.827Z,0.00
2019-06-26T01:03:47.741Z,0.00
2019-06-26T01:04:47.726Z,0.00
2019-06-26T01:05:47.736Z,0.00
2019-06-26T01:06:47.793Z,0.00
2019-06-26T01:07:47.716Z,0.00
2019-06-26T01:08:47.691Z,0.00
2019-06-26T01:09:47.786Z,0.00
2019-06-26T01:10:47.672Z,0.00
2019-06-26T01:11:47.761Z,0.00
2019-06-26T01:12:47.637Z,0.00
2019-06-26T01:13:57.810Z,0.00
2019-06-26T01:14:48.627Z,0.00
2019-06-26T01:15:47.620Z,0.00
2019-06-26T01:16:47.607Z,0.00
2019-06-26T01:17:47.629Z,0.00
2019-06-26T01:18:47.593Z,0.00
2019-06-26T01:19:48.182Z,0.00
2019-06-26T01:20:47.561Z,0.00
2019-06-26T01:21:47.622Z,0.00
2019-06-26T01:22:47.573Z,0.00
2019-06-26T01:23:47.530Z,0.00
2019-06-26T01:24:47.529Z,0.00
2019-06-26T01:25:47.568Z,0.00
2019-06-26T01:26:47.513Z,0.00
2019-06-26T01:27:47.518Z,0.00
2019-06-26T01:28:47.483Z,0.00
2019-06-26T01:29:47.535Z,0.00
2019-06-26T01:30:47.460Z,0.00
2019-06-26T01:31:47.445Z,0.00
2019-06-26T01:32:47.448Z,0.00
2019-06-26T01:33:47.446Z,0.00
2019-06-26T01:34:47.469Z,0.00
2019-06-26T01:35:47.406Z,0.00
2019-06-26T01:36:47.393Z,0.00
2019-06-26T01:37:47.397Z,0.00
2019-06-26T01:38:47.384Z,0.00
2019-06-26T01:39:47.373Z,0.00
2019-06-26T01:40:47.341Z,0.00
2019-06-26T01:41:47.340Z,0.00
2019-06-26T01:42:47.326Z,0.00
2019-06-26T01:43:47.323Z,0.00
2019-06-26T01:44:47.315Z,0.00
2019-06-26T01:45:47.340Z,0.00
2019-06-26T01:46:47.329Z,0.00
2019-06-26T01:47:47.297Z,0.00
2019-06-26T01:48:47.255Z,0.00
2019-06-26T01:49:47.268Z,0.00
2019-06-26T01:50:47.341Z,0.00
2019-06-26T01:51:47.437Z,0.00
2019-06-26T01:52:47.258Z,0.00
2019-06-26T01:53:47.229Z,0.00
2019-06-26T01:54:47.267Z,0.00
2019-06-26T01:55:47.205Z,0.00
2019-06-26T01:56:47.174Z,0.00
2019-06-26T01:57:47.176Z,0.00
2019-06-26T01:58:47.191Z,0.00
2019-06-26T01:59:47.199Z,0.00
2019-06-26T02:00:47.170Z,0.00
2019-06-26T02:01:47.122Z,0.00
2019-06-26T02:02:47.127Z,0.00
2019-06-26T02:03:47.119Z,0.00
2019-06-26T02:04:47.129Z,0.00
2019-06-26T02:05:47.340Z,0.00
2019-06-26T02:06:47.077Z,0.00
2019-06-26T02:07:47.074Z,4.00
2019-06-26T02:08:47.375Z,4.00
2019-06-26T02:09:47.056Z,4.00
2019-06-26T02:10:47.022Z,4.00
2019-06-26T02:11:47.135Z,0.00
2019-06-26T02:12:47.002Z,4.00
2019-06-26T02:13:47.012Z,4.00
2019-06-26T02:14:46.980Z,4.00
2019-06-26T02:15:46.967Z,8.00
2019-06-26T02:16:46.956Z,4.00
2019-06-26T02:17:46.957Z,8.00
2019-06-26T02:18:46.945Z,8.00
2019-06-26T02:19:46.963Z,8.00
2019-06-26T02:20:46.932Z,12.00
2019-06-26T02:21:46.992Z,8.00
2019-06-26T02:22:49.540Z,12.00
2019-06-26T02:23:46.903Z,12.00
2019-06-26T02:24:46.870Z,12.00
2019-06-26T02:25:46.862Z,16.00
2019-06-26T02:26:46.886Z,16.00
2019-06-26T02:27:46.902Z,16.00
2019-06-26T02:28:46.841Z,24.00
2019-06-26T02:29:46.838Z,24.00
2019-06-26T02:30:46.816Z,28.00
2019-06-26T02:31:46.859Z,28.00
2019-06-26T02:32:46.780Z,32.00
2019-06-26T02:33:46.820Z,36.00
2019-06-26T02:34:46.780Z,40.00
2019-06-26T02:35:46.762Z,40.00
2019-06-26T02:36:46.793Z,44.00
2019-06-26T02:37:46.765Z,48.00
2019-06-26T02:38:46.711Z,52.00
2019-06-26T02:39:46.752Z,56.00
2019-06-26T02:40:46.719Z,64.00
2019-06-26T02:41:46.697Z,68.00
2019-06-26T02:42:46.697Z,72.00
2019-06-26T02:43:46.728Z,76.00
2019-06-26T02:44:53.381Z,84.00
2019-06-26T02:45:47.639Z,88.00
2019-06-26T02:46:46.663Z,96.00
2019-06-26T02:47:46.634Z,104.00
2019-06-26T02:48:46.647Z,112.00
2019-06-26T02:49:46.611Z,116.00
2019-06-26T02:50:46.592Z,124.00
2019-06-26T02:51:46.693Z,136.00
2019-06-26T02:52:46.572Z,144.00
2019-06-26T02:53:46.651Z,152.00
2019-06-26T02:54:46.589Z,164.00
2019-06-26T02:55:46.576Z,176.00
2019-06-26T02:56:46.588Z,184.00
2019-06-26T02:57:46.540Z,200.00
2019-06-26T02:58:46.535Z,212.00
2019-06-26T02:59:46.548Z,228.00
2019-06-26T03:00:46.497Z,244.00
2019-06-26T03:01:46.489Z,260.00
2019-06-26T03:02:46.495Z,272.00
2019-06-26T03:03:46.469Z,292.00
2019-06-26T03:04:46.454Z,308.00
2019-06-26T03:05:46.487Z,328.00
2019-06-26T03:06:46.446Z,348.00
2019-06-26T03:07:46.431Z,364.00
2019-06-26T03:08:46.434Z,388.00
2019-06-26T03:09:46.425Z,412.00
2019-06-26T03:10:46.400Z,436.00
2019-06-26T03:11:46.385Z,460.00
2019-06-26T03:12:46.472Z,492.00
2019-06-26T03:13:46.360Z,524.00
2019-06-26T03:14:46.349Z,560.00
2019-06-26T03:15:50.190Z,596.00
2019-06-26T03:16:46.333Z,628.00
2019-06-26T03:17:55.423Z,652.00
2019-06-26T03:18:47.303Z,668.00
2019-06-26T03:19:46.286Z,672.00
2019-06-26T03:20:46.328Z,660.00
2019-06-26T03:21:46.271Z,640.00
2019-06-26T03:22:46.277Z,616.00
2019-06-26T03:23:46.273Z,596.00
2019-06-26T03:24:46.252Z,576.00
2019-06-26T03:25:46.283Z,568.00
2019-06-26T03:26:46.248Z,572.00
2019-06-26T03:27:46.228Z,576.00
2019-06-26T03:28:46.744Z,588.00
2019-06-26T03:29:46.276Z,612.00
2019-06-26T03:30:46.228Z,636.00
2019-06-26T03:31:46.240Z,664.00
2019-06-26T03:32:46.202Z,692.00
2019-06-26T03:33:46.145Z,736.00
2019-06-26T03:34:46.175Z,780.00
2019-06-26T03:35:46.171Z,816.00
2019-06-26T03:36:46.152Z,848.00
2019-06-26T03:37:46.122Z,880.00
2019-06-26T03:38:46.105Z,912.00
2019-06-26T03:39:46.090Z,932.00
2019-06-26T03:40:46.093Z,940.00
2019-06-26T03:41:46.106Z,936.00
2019-06-26T03:42:46.116Z,920.00
2019-06-26T03:43:46.055Z,904.00
2019-06-26T03:44:46.030Z,900.00
2019-06-26T03:45:46.108Z,920.00
2019-06-26T03:46:46.107Z,956.00
2019-06-26T03:47:46.035Z,992.00
2019-06-26T03:48:46.010Z,1028.00
2019-06-26T03:49:45.979Z,1060.00
2019-06-26T03:50:45.961Z,1072.00
2019-06-26T03:51:46.008Z,1076.00
2019-06-26T03:52:45.980Z,1068.00
2019-06-26T03:53:45.977Z,1044.00
2019-06-26T03:54:45.933Z,1016.00
2019-06-26T03:55:45.942Z,984.00
2019-06-26T03:56:45.890Z,984.00
2019-06-26T03:57:45.904Z,996.00
2019-06-26T03:58:46.005Z,1012.00
2019-06-26T03:59:45.889Z,1016.00
2019-06-26T04:00:45.871Z,1012.00
2019-06-26T04:01:45.846Z,1016.00
2019-06-26T04:02:45.944Z,1024.00
2019-06-26T04:03:45.875Z,1028.00
2019-06-26T04:04:45.826Z,1032.00
2019-06-26T04:05:45.820Z,1040.00
2019-06-26T04:06:45.802Z,1056.00
2019-06-26T04:07:45.791Z,1068.00
2019-06-26T04:08:45.868Z,1072.00
2019-06-26T04:09:45.756Z,1072.00
2019-06-26T04:10:45.747Z,1072.00
2019-06-26T04:11:46.768Z,1072.00
2019-06-26T04:12:45.807Z,1088.00
2019-06-26T04:13:45.754Z,1116.00
2019-06-26T04:14:45.727Z,1144.00
2019-06-26T04:15:45.699Z,1172.00
2019-06-26T04:16:45.685Z,1196.00
2019-06-26T04:17:45.789Z,1232.00
2019-06-26T04:18:45.771Z,1256.00
2019-06-26T04:19:45.728Z,1284.00
2019-06-26T04:20:45.645Z,1312.00
2019-06-26T04:21:45.663Z,1340.00
2019-06-26T04:22:48.747Z,1352.00
2019-06-26T04:23:45.605Z,1356.00
2019-06-26T04:24:45.598Z,1356.00
2019-06-26T04:25:45.598Z,1348.00
2019-06-26T04:26:45.608Z,1352.00
2019-06-26T04:27:45.567Z,1324.00
2019-06-26T04:28:45.556Z,1300.00
2019-06-26T04:29:45.573Z,1320.00
2019-06-26T04:30:46.251Z,1384.00
2019-06-26T04:31:45.524Z,1424.00
2019-06-26T04:32:48.398Z,1456.00
2019-06-26T04:33:45.555Z,1456.00
2019-06-26T04:34:45.529Z,1464.00
2019-06-26T04:35:47.298Z,1492.00
2019-06-26T04:36:45.461Z,1528.00
2019-06-26T04:37:46.025Z,1564.00
2019-06-26T04:38:49.947Z,1580.00
2019-06-26T04:39:45.443Z,1596.00
2019-06-26T04:40:45.467Z,1612.00
2019-06-26T04:41:45.446Z,1628.00
2019-06-26T04:42:49.791Z,1640.00
2019-06-26T04:43:56.883Z,1656.00
2019-06-26T04:44:48.591Z,1668.00
2019-06-26T04:45:57.753Z,1684.00
2019-06-26T04:46:46.365Z,1704.00
2019-06-26T04:47:45.435Z,1716.00
2019-06-26T04:48:45.448Z,1732.00
2019-06-26T04:49:48.102Z,1748.00
2019-06-26T04:50:50.603Z,1760.00
2019-06-26T04:51:49.110Z,1776.00
2019-06-26T04:52:47.231Z,1784.00
2019-06-26T04:53:48.026Z,1800.00
2019-06-26T04:54:48.213Z,1812.00
2019-06-26T04:55:46.257Z,1828.00
2019-06-26T04:56:58.130Z,1836.00
2019-06-26T04:57:45.255Z,1852.00
2019-06-26T04:58:45.243Z,1848.00
2019-06-26T04:59:45.214Z,1864.00
2019-06-26T05:00:45.205Z,1872.00
2019-06-26T05:01:45.203Z,1884.00
2019-06-26T05:02:45.192Z,1888.00
2019-06-26T05:03:45.219Z,1888.00
2019-06-26T05:04:45.187Z,1892.00
2019-06-26T05:05:45.373Z,1896.00
2019-06-26T05:06:45.310Z,1904.00
2019-06-26T05:07:45.687Z,1908.00
2019-06-26T05:08:45.547Z,1916.00
2019-06-26T05:09:47.417Z,1924.00
2019-06-26T05:10:51.268Z,1932.00
2019-06-26T05:11:45.975Z,1940.00
2019-06-26T05:12:45.094Z,1956.00
2019-06-26T05:13:45.063Z,1964.00
2019-06-26T05:14:45.062Z,1984.00
2019-06-26T05:15:45.066Z,2000.00
2019-06-26T05:16:45.039Z,2020.00
2019-06-26T05:17:45.041Z,2032.00
2019-06-26T05:18:45.013Z,2044.00
2019-06-26T05:19:45.057Z,2068.00
2019-06-26T05:20:45.009Z,2080.00
2019-06-26T05:21:45.033Z,2100.00
2019-06-26T05:22:44.977Z,2112.00
2019-06-26T05:23:44.983Z,2132.00
2019-06-26T05:24:46.536Z,2140.00
2019-06-26T05:25:45.050Z,2152.00
2019-06-26T05:26:45.067Z,2164.00
2019-06-26T05:27:44.920Z,2176.00
2019-06-26T05:28:44.916Z,2188.00
2019-06-26T05:29:44.921Z,2200.00
2019-06-26T05:30:44.961Z,2208.00
2019-06-26T05:31:44.941Z,2220.00
2019-06-26T05:32:44.900Z,2224.00
2019-06-26T05:33:44.899Z,2240.00
2019-06-26T05:34:44.854Z,2248.00
2019-06-26T05:37:03.307Z,2280.00
2019-06-26T05:38:05.877Z,2292.00
2019-06-26T05:39:04.218Z,2304.00
2019-06-26T05:40:03.139Z,2320.00
2019-06-26T05:41:03.034Z,2332.00
2019-06-26T05:42:06.562Z,2344.00
2019-06-26T05:44:20.432Z,2372.00
2019-06-26T05:45:20.092Z,2384.00
2019-06-26T05:46:30.592Z,2400.00
2019-06-26T05:47:22.099Z,2408.00
2019-06-26T05:48:20.005Z,2412.00
2019-06-26T05:49:20.022Z,2420.00
2019-06-26T05:50:19.969Z,2432.00
2019-06-26T05:51:19.958Z,2448.00
2019-06-26T05:52:20.015Z,2460.00
2019-06-26T05:53:19.956Z,2476.00
2019-06-26T05:54:19.962Z,2492.00
2019-06-26T05:55:19.952Z,2504.00
2019-06-26T05:56:19.926Z,2520.00
2019-06-26T05:57:19.946Z,2540.00
2019-06-26T05:58:19.954Z,2544.00
2019-06-26T05:59:19.954Z,2556.00
2019-06-26T06:00:19.931Z,2572.00
2019-06-26T06:01:19.899Z,2588.00
2019-06-26T06:02:19.903Z,2600.00
2019-06-26T06:03:19.865Z,2612.00
2019-06-26T06:04:19.861Z,2620.00
2019-06-26T06:05:19.850Z,2632.00
2019-06-26T06:06:19.842Z,2648.00
2019-06-26T06:07:19.833Z,2656.00
2019-06-26T06:08:19.833Z,2664.00
2019-06-26T06:09:19.795Z,2684.00
2019-06-26T06:10:19.781Z,2692.00
2019-06-26T06:11:19.948Z,2704.00
2019-06-26T06:12:19.761Z,2720.00
2019-06-26T06:13:19.751Z,2736.00
2019-06-26T06:14:19.755Z,2756.00
2019-06-26T06:15:19.741Z,2764.00
2019-06-26T06:16:19.757Z,2776.00
2019-06-26T06:17:19.705Z,2796.00
2019-06-26T06:18:19.692Z,2816.00
2019-06-26T06:19:19.812Z,2836.00
2019-06-26T06:20:19.744Z,2852.00
2019-06-26T06:21:19.659Z,2872.00
2019-06-26T06:22:19.655Z,2888.00
2019-06-26T06:23:19.709Z,2904.00
2019-06-26T06:24:19.703Z,2932.00
2019-06-26T06:25:21.486Z,2940.00
2019-06-26T06:26:19.669Z,2952.00
2019-06-26T06:27:19.602Z,2960.00
2019-06-26T06:28:19.622Z,2976.00
2019-06-26T06:29:19.651Z,2988.00
2019-06-26T06:30:19.584Z,3016.00
2019-06-26T06:31:19.546Z,3028.00
2019-06-26T06:32:19.548Z,3044.00
2019-06-26T06:33:19.535Z,3064.00
2019-06-26T06:34:19.512Z,3092.00
2019-06-26T06:35:19.556Z,3108.00
2019-06-26T06:36:19.532Z,3116.00
2019-06-26T06:37:19.493Z,3124.00
2019-06-26T06:38:19.479Z,3148.00
2019-06-26T06:39:19.481Z,3152.00
2019-06-26T06:40:19.450Z,3156.00
2019-06-26T06:41:19.496Z,3180.00
2019-06-26T06:42:19.422Z,3192.00
2019-06-26T06:43:19.423Z,3212.00
2019-06-26T06:44:19.422Z,3228.00
2019-06-26T06:45:19.472Z,3236.00
2019-06-26T06:46:19.435Z,3252.00
2019-06-26T06:47:19.377Z,3268.00
2019-06-26T06:48:19.387Z,3284.00
2019-06-26T06:49:19.363Z,3292.00
2019-06-26T06:50:19.392Z,3304.00
2019-06-26T06:51:19.359Z,3332.00
2019-06-26T06:52:19.339Z,3344.00
2019-06-26T06:53:19.333Z,3360.00
2019-06-26T06:54:19.387Z,3384.00
2019-06-26T06:55:19.352Z,3400.00
2019-06-26T06:56:19.330Z,3424.00
2019-06-26T06:57:19.309Z,3432.00
2019-06-26T06:58:19.281Z,3448.00
2019-06-26T06:59:19.248Z,3476.00
2019-06-26T07:00:19.256Z,3488.00
2019-06-26T07:01:19.232Z,3492.00
2019-06-26T07:02:19.227Z,3520.00
2019-06-26T07:03:19.299Z,3556.00
2019-06-26T07:04:19.262Z,3576.00
2019-06-26T07:05:19.214Z,3596.00
2019-06-26T07:06:19.190Z,3612.00
2019-06-26T07:07:19.266Z,3628.00
2019-06-26T07:08:19.189Z,3648.00
2019-06-26T07:09:19.192Z,3644.00
2019-06-26T07:10:19.163Z,3664.00
2019-06-26T07:11:19.154Z,3676.00
2019-06-26T07:12:20.919Z,3684.00
2019-06-26T07:13:19.127Z,3724.00
2019-06-26T07:14:19.120Z,3740.00
2019-06-26T07:15:19.104Z,3748.00
2019-06-26T07:16:19.103Z,3744.00
2019-06-26T07:17:21.105Z,3760.00
2019-06-26T07:18:19.133Z,3772.00
2019-06-26T07:19:19.055Z,3784.00
2019-06-26T07:20:19.064Z,3808.00
2019-06-26T07:21:19.058Z,3816.00
2019-06-26T07:22:19.026Z,3844.00
2019-06-26T07:23:19.086Z,3860.00
2019-06-26T07:24:19.003Z,3876.00
2019-06-26T07:25:19.003Z,3892.00
2019-06-26T07:26:19.015Z,3904.00
2019-06-26T07:27:18.962Z,3920.00
2019-06-26T07:28:19.029Z,3924.00
2019-06-26T07:29:18.996Z,3960.00
2019-06-26T07:30:18.941Z,3976.00
2019-06-26T07:31:18.992Z,3988.00
2019-06-26T07:32:18.908Z,3996.00
2019-06-26T07:33:18.907Z,4012.00
2019-06-26T07:34:18.916Z,4032.00
2019-06-26T07:35:18.878Z,4040.00
2019-06-26T07:36:18.891Z,4088.00
2019-06-26T07:37:18.903Z,4088.00
2019-06-26T07:38:18.879Z,4088.00
2019-06-26T07:39:18.848Z,4120.00
2019-06-26T07:40:18.833Z,4128.00
2019-06-26T07:41:18.820Z,4160.00
2019-06-26T07:42:18.826Z,4184.00
2019-06-26T07:43:18.835Z,4208.00
2019-06-26T07:44:18.794Z,4204.00
2019-06-26T07:45:18.819Z,4216.00
2019-06-26T07:46:18.785Z,4232.00
2019-06-26T07:47:23.518Z,4240.00
2019-06-26T07:48:19.755Z,4252.00
2019-06-26T07:49:18.756Z,4292.00
2019-06-26T07:50:18.755Z,4312.00
2019-06-26T07:51:18.993Z,4312.00
2019-06-26T07:52:18.699Z,4316.00
2019-06-26T07:53:18.763Z,4336.00
2019-06-26T07:54:18.704Z,4348.00
2019-06-26T07:55:18.714Z,4348.00
2019-06-26T07:56:18.679Z,4344.00
2019-06-26T07:57:19.398Z,4356.00
2019-06-26T07:58:18.671Z,4376.00
2019-06-26T07:59:19.016Z,4388.00
2019-06-26T08:00:18.646Z,4392.00
2019-06-26T08:01:18.637Z,4388.00
2019-06-26T08:02:18.625Z,4404.00
2019-06-26T08:03:18.660Z,4412.00
2019-06-26T08:04:18.583Z,4428.00
2019-06-26T08:05:18.578Z,4424.00
2019-06-26T08:06:18.594Z,4456.00
2019-06-26T08:07:18.565Z,4468.00
2019-06-26T08:08:19.005Z,4488.00
2019-06-26T08:09:18.525Z,4500.00
2019-06-26T08:10:18.562Z,4516.00
2019-06-26T08:11:18.510Z,4528.00
2019-06-26T08:12:18.502Z,4536.00
2019-06-26T08:13:18.554Z,4568.00
2019-06-26T08:14:18.498Z,4580.00
2019-06-26T08:15:18.551Z,4616.00
2019-06-26T08:16:18.460Z,4624.00
2019-06-26T08:17:18.491Z,4624.00
2019-06-26T08:18:18.549Z,4636.00
2019-06-26T08:19:18.442Z,4636.00
2019-06-26T08:20:18.434Z,4652.00
2019-06-26T08:21:18.414Z,4676.00
2019-06-26T08:22:18.613Z,4680.00
2019-06-26T08:23:18.392Z,4676.00
2019-06-26T08:24:18.377Z,4700.00
2019-06-26T08:25:18.379Z,4732.00
2019-06-26T08:26:18.373Z,4760.00
2019-06-26T08:27:18.367Z,4756.00
2019-06-26T08:28:18.340Z,4788.00
2019-06-26T08:29:18.407Z,4844.00
2019-06-26T08:30:18.399Z,4880.00
2019-06-26T08:31:18.326Z,4884.00
2019-06-26T08:32:18.342Z,4884.00
2019-06-26T08:33:18.295Z,4876.00
2019-06-26T08:34:18.331Z,4872.00
2019-06-26T08:35:18.380Z,4884.00
2019-06-26T08:36:18.318Z,4904.00
2019-06-26T08:37:18.343Z,4940.00
2019-06-26T08:38:18.229Z,4980.00
2019-06-26T08:39:18.257Z,5040.00
2019-06-26T08:40:18.442Z,5068.00
2019-06-26T08:41:18.210Z,5108.00
2019-06-26T08:42:18.247Z,5120.00
2019-06-26T08:43:18.205Z,5128.00
2019-06-26T08:44:18.166Z,5136.00
2019-06-26T08:45:18.185Z,5136.00
2019-06-26T08:46:18.259Z,5136.00
2019-06-26T08:47:18.168Z,5120.00
2019-06-26T08:48:37.903Z,5132.00
2019-06-26T08:49:25.603Z,5152.00
2019-06-26T08:50:19.151Z,5168.00
2019-06-26T08:51:18.204Z,5148.00
2019-06-26T08:52:18.113Z,5140.00
2019-06-26T08:53:18.911Z,5160.00
2019-06-26T08:54:18.174Z,5176.00
2019-06-26T08:55:18.067Z,5208.00
2019-06-26T08:56:18.613Z,5244.00
2019-06-26T08:57:18.039Z,5244.00
2019-06-26T08:58:18.218Z,5188.00
2019-06-26T08:59:18.196Z,5156.00
2019-06-26T09:00:18.310Z,5188.00
2019-06-26T09:01:18.041Z,5188.00
2019-06-26T09:02:18.047Z,5140.00
2019-06-26T09:03:18.006Z,5184.00
2019-06-26T09:04:18.003Z,5180.00
2019-06-26T09:05:17.964Z,5180.00
2019-06-26T09:06:18.075Z,5220.00
2019-06-26T09:07:17.977Z,5300.00
2019-06-26T09:08:18.089Z,5360.00
2019-06-26T09:09:17.939Z,5372.00
2019-06-26T09:10:28.952Z,5420.00
2019-06-26T09:11:18.117Z,5464.00
2019-06-26T09:12:18.080Z,5508.00
2019-06-26T09:13:18.083Z,5536.00
2019-06-26T09:14:18.513Z,5548.00
2019-06-26T09:15:17.869Z,5528.00
2019-06-26T09:16:17.899Z,5516.00
2019-06-26T09:17:17.893Z,5568.00
2019-06-26T09:18:34.068Z,5600.00
2019-06-26T09:19:18.876Z,5600.00
2019-06-26T09:20:17.819Z,5636.00
2019-06-26T09:21:17.845Z,5640.00
2019-06-26T09:22:17.820Z,5636.00
2019-06-26T09:23:18.165Z,5696.00
2019-06-26T09:24:17.829Z,5668.00
2019-06-26T09:25:22.179Z,5612.00
2019-06-26T09:26:17.774Z,5572.00
2019-06-26T09:27:18.445Z,5464.00
2019-06-26T09:28:17.786Z,5560.00
2019-06-26T09:29:17.764Z,5476.00
2019-06-26T09:30:17.754Z,5460.00
2019-06-26T09:31:17.798Z,5576.00
2019-06-26T09:32:18.525Z,5588.00
2019-06-26T09:33:17.687Z,5676.00
2019-06-26T09:34:17.726Z,5716.00
2019-06-26T09:35:17.736Z,5720.00
2019-06-26T09:36:28.094Z,5724.00
2019-06-26T09:37:18.408Z,5724.00
2019-06-26T09:38:17.957Z,5724.00
2019-06-26T09:39:18.086Z,5708.00
2019-06-26T09:40:17.749Z,5704.00
2019-06-26T09:41:19.453Z,5720.00
2019-06-26T09:42:19.754Z,5780.00
2019-06-26T09:43:17.722Z,5864.00
2019-06-26T09:44:17.616Z,6024.00
2019-06-26T09:45:17.587Z,6120.00
2019-06-26T09:46:17.656Z,6188.00
2019-06-26T09:47:17.622Z,6284.00
2019-06-26T09:48:17.558Z,6316.00
2019-06-26T09:49:17.581Z,6216.00
2019-06-26T09:50:17.811Z,6072.00
2019-06-26T09:51:17.595Z,6052.00
2019-06-26T09:52:17.478Z,6188.00
2019-06-26T09:53:17.987Z,6276.00
2019-06-26T09:54:17.487Z,6276.00
2019-06-26T09:55:17.484Z,6256.00
2019-06-26T09:56:17.512Z,6488.00
2019-06-26T09:57:17.468Z,6616.00
2019-06-26T09:58:17.419Z,6692.00
2019-06-26T09:59:17.417Z,6744.00
2019-06-26T10:00:17.524Z,6512.00
2019-06-26T10:01:17.473Z,7136.00
2019-06-26T10:02:17.422Z,7052.00
2019-06-26T10:03:17.376Z,7420.00
2019-06-26T10:04:17.427Z,7288.00
2019-06-26T10:05:17.523Z,7520.00
2019-06-26T10:06:17.346Z,7084.00
2019-06-26T10:07:17.369Z,6984.00
2019-06-26T10:08:17.320Z,6624.00
2019-06-26T10:09:17.335Z,6328.00
2019-06-26T10:10:17.357Z,6040.00
2019-06-26T10:11:17.301Z,5912.00
2019-06-26T10:12:17.342Z,5524.00
2019-06-26T10:13:17.283Z,5600.00
2019-06-26T10:14:17.510Z,6088.00
2019-06-26T10:15:17.245Z,6248.00
2019-06-26T10:16:17.287Z,6380.00
2019-06-26T10:17:17.250Z,6472.00
2019-06-26T10:18:17.252Z,6504.00
2019-06-26T10:19:17.251Z,6416.00
2019-06-26T10:20:17.232Z,6148.00
2019-06-26T10:21:17.556Z,6088.00
2019-06-26T10:22:17.211Z,5884.00
2019-06-26T10:23:18.046Z,5944.00
2019-06-26T10:24:17.184Z,5944.00
2019-06-26T10:25:17.188Z,5992.00
2019-06-26T10:26:17.418Z,6024.00
2019-06-26T10:27:17.128Z,6168.00
2019-06-26T10:28:17.194Z,6176.00
2019-06-26T10:29:17.247Z,6160.00
2019-06-26T10:30:17.228Z,6132.00
2019-06-26T10:31:18.537Z,6048.00
2019-06-26T10:32:17.090Z,6028.00
2019-06-26T10:33:17.072Z,6068.00
2019-06-26T10:34:17.140Z,6148.00
2019-06-26T10:35:17.137Z,6136.00
2019-06-26T10:36:17.053Z,6144.00
2019-06-26T10:37:17.057Z,6160.00
2019-06-26T10:38:17.016Z,6176.00
2019-06-26T10:39:17.048Z,6248.00
2019-06-26T10:40:17.037Z,6340.00
2019-06-26T10:41:16.994Z,6476.00
2019-06-26T10:42:17.000Z,6660.00
2019-06-26T10:43:17.041Z,6692.00
2019-06-26T10:44:16.998Z,6528.00
2019-06-26T10:45:16.942Z,6392.00
2019-06-26T10:46:16.936Z,6360.00
2019-06-26T10:47:16.963Z,6436.00
2019-06-26T10:48:16.923Z,6496.00
2019-06-26T10:49:27.117Z,6536.00
2019-06-26T10:50:17.916Z,6520.00
2019-06-26T10:51:18.545Z,6504.00
2019-06-26T10:52:16.923Z,6568.00
2019-06-26T10:53:17.502Z,6604.00
2019-06-26T10:54:16.864Z,6836.00
2019-06-26T10:55:16.959Z,7076.00
2019-06-26T10:56:16.979Z,7264.00
2019-06-26T10:57:17.502Z,7380.00
2019-06-26T10:58:16.841Z,7420.00
2019-06-26T10:59:16.849Z,7548.00
2019-06-26T11:00:16.812Z,8092.00
2019-06-26T11:01:17.626Z,8716.00
2019-06-26T11:02:17.509Z,9636.00
2019-06-26T11:03:16.775Z,9716.00
2019-06-26T11:04:16.824Z,9124.00
2019-06-26T11:05:16.817Z,9152.00
2019-06-26T11:06:16.751Z,10328.00
2019-06-26T11:07:16.729Z,11948.00
2019-06-26T11:08:16.754Z,12520.00
2019-06-26T11:09:16.697Z,11212.00
2019-06-26T11:10:16.759Z,10852.00
2019-06-26T11:11:16.772Z,11220.00
2019-06-26T11:12:16.679Z,10940.00
2019-06-26T11:13:16.687Z,11236.00
2019-06-26T11:14:16.763Z,12068.00
2019-06-26T11:15:16.695Z,12696.00
2019-06-26T11:16:16.662Z,12376.00
2019-06-26T11:17:16.651Z,12292.00
2019-06-26T11:18:16.623Z,13024.00
2019-06-26T11:19:16.630Z,13396.00
2019-06-26T11:20:16.576Z,12776.00
2019-06-26T11:21:16.594Z,11128.00
2019-06-26T11:22:16.660Z,8512.00
2019-06-26T11:23:16.607Z,7896.00
2019-06-26T11:24:16.585Z,9544.00
2019-06-26T11:25:16.568Z,10884.00
2019-06-26T11:26:16.544Z,12128.00
2019-06-26T11:27:16.623Z,11740.00
2019-06-26T11:28:16.510Z,11832.00
2019-06-26T11:29:16.504Z,12404.00
2019-06-26T11:30:16.566Z,11368.00
2019-06-26T11:31:16.492Z,10936.00
2019-06-26T11:32:16.521Z,10380.00
2019-06-26T11:33:16.475Z,9852.00
2019-06-26T11:34:16.474Z,10308.00
2019-06-26T11:35:16.463Z,10888.00
2019-06-26T11:36:16.439Z,11588.00
2019-06-26T11:56:12.052Z,85216.00
2019-06-26T11:56:40.153Z,12992.00
2019-06-26T11:58:15.052Z,9804.00
2019-06-26T11:58:38.701Z,17344.00
2019-06-26T11:59:38.372Z,10408.00
2019-06-26T12:00:41.458Z,12428.00
2019-06-26T12:01:42.251Z,83168.00
2019-06-26T12:02:56.896Z,8364.00
2019-06-26T12:03:38.290Z,80512.00
2019-06-26T12:04:38.363Z,81472.00
2019-06-26T12:05:39.290Z,79936.00
2019-06-26T12:06:39.149Z,80736.00
2019-06-26T12:07:38.299Z,79040.00
2019-06-26T12:08:38.288Z,69472.00
2019-06-26T12:09:38.248Z,67360.00
2019-06-26T12:10:38.251Z,9060.00
2019-06-26T12:11:38.262Z,66688.00
2019-06-26T12:12:38.229Z,7544.00
2019-06-26T12:13:38.207Z,7620.00
2019-06-26T12:14:38.250Z,8140.00
2019-06-26T12:15:38.670Z,7772.00
2019-06-26T12:16:38.183Z,8092.00
2019-06-26T12:17:38.255Z,10972.00
2019-06-26T12:18:38.180Z,13624.00
2019-06-26T12:19:38.163Z,63136.00
2019-06-26T12:20:38.176Z,82496.00
2019-06-26T12:21:38.153Z,32384.00
2019-06-26T12:22:38.230Z,61312.00
2019-06-26T12:23:38.134Z,76256.00
2019-06-26T12:24:40.159Z,78464.00
2019-06-26T12:25:38.194Z,77440.00
2019-06-26T12:26:38.060Z,8352.00
2019-06-26T12:27:38.070Z,8952.00
2019-06-26T12:28:38.083Z,21248.00
2019-06-26T12:29:38.083Z,18144.00
2019-06-26T12:30:38.658Z,82688.00
2019-06-26T12:31:38.111Z,84288.00
2019-06-26T12:32:42.290Z,81760.00
2019-06-26T12:33:39.039Z,77728.00
2019-06-26T12:34:38.008Z,80128.00
2019-06-26T12:35:38.008Z,81184.00
2019-06-26T12:36:37.975Z,83872.00
2019-06-26T12:37:38.422Z,82304.00
2019-06-26T12:38:39.248Z,81376.00
2019-06-26T12:39:38.009Z,40704.00
2019-06-26T12:40:37.966Z,78656.00
2019-06-26T12:41:37.959Z,82720.00